Time;durP1;ratioP1;P1;durP2;ratioP2;P2;SDS_P1;SDS_P2;PMS_P1;PMS_P2;Temp;Humidity;BMP_temperature;BMP_pressure;BME280_temperature;BME280_humidity;BME280_pressure;Samples;Min_cycle;Max_cycle;Signal;HPM_P1;HPM_P2
2022/11/06 00:03:30;;;;;;;37.30;11.37;;;;;5.90;96682.00;;;;10070399;23;20247;-69
2022/11/06 00:07:33;;;;;;;31.87;12.23;;;;;5.80;96685.00;;;;10071100;23;20199;-69
2022/11/06 00:11:37;;;;;;;32.73;10.70;;;;;5.70;96675.00;;;;10070236;23;20285;-69
2022/11/06 00:15:40;;;;;;;44.73;12.30;;;;;5.50;96680.00;;;;10142018;23;20214;-69
2022/11/06 00:19:45;;;;;;;49.00;11.47;;;;;5.40;96688.00;;;;10119685;23;20212;-69
2022/11/06 00:23:48;;;;;;;34.80;9.77;;;;;5.30;96689.00;;;;10119090;23;20538;-69
2022/11/06 00:27:51;;;;;;;38.73;11.13;;;;;5.10;96682.00;;;;10119658;23;20210;-69
2022/11/06 00:31:54;;;;;;;35.30;10.90;;;;;5.00;96693.00;;;;10116118;23;20825;-69
2022/11/06 00:36:02;;;;;;;32.90;10.67;;;;;4.90;96698.00;;;;10121502;23;20208;-69
2022/11/06 00:40:06;;;;;;;43.73;10.47;;;;;4.80;96690.00;;;;10111648;23;20206;-68
2022/11/06 00:44:10;;;;;;;36.97;11.73;;;;;4.70;96686.00;;;;10119683;23;20210;-69
2022/11/06 00:48:13;;;;;;;39.33;13.23;;;;;4.70;96677.00;;;;10117807;23;20202;-69
2022/11/06 00:52:18;;;;;;;41.93;12.17;;;;;4.70;96680.00;;;;10118286;23;20208;-68
2022/11/06 00:56:21;;;;;;;129.53;15.63;;;;;4.70;96671.00;;;;10117251;23;20285;-71
2022/11/06 01:00:24;;;;;;;115.03;14.10;;;;;4.60;96665.00;;;;10117888;23;20205;-69
2022/11/06 01:04:28;;;;;;;136.00;16.13;;;;;4.50;96669.00;;;;10116307;23;20218;-69
2022/11/06 01:08:33;;;;;;;118.03;13.13;;;;;4.40;96670.00;;;;10119417;23;20201;-69
2022/11/06 01:12:36;;;;;;;59.50;14.17;;;;;4.40;96678.00;;;;10067277;23;20207;-70
2022/11/06 01:16:39;;;;;;;48.57;11.33;;;;;4.40;96672.00;;;;10107805;23;20265;-70
2022/11/06 01:20:43;;;;;;;38.70;10.70;;;;;4.30;96669.00;;;;10117435;23;20220;-69
2022/11/06 01:24:48;;;;;;;37.47;10.60;;;;;4.20;96665.00;;;;10117324;23;20214;-69
2022/11/06 01:28:51;;;;;;;41.20;11.13;;;;;4.20;96680.00;;;;10116844;23;20482;-69
2022/11/06 01:32:54;;;;;;;37.83;11.67;;;;;4.20;96676.00;;;;10117048;23;20212;-69
2022/11/06 01:36:57;;;;;;;38.77;11.83;;;;;4.20;96670.00;;;;10116403;23;20202;-69
2022/11/06 01:41:02;;;;;;;36.50;10.73;;;;;4.20;96664.00;;;;10116746;23;20270;-69
2022/11/06 01:45:25;;;;;;;38.93;10.63;;;;;4.10;96658.00;;;;10054716;23;20627;-69
2022/11/06 01:49:32;;;;;;;45.20;10.83;;;;;4.00;96656.00;;;;10069570;23;20593;-69
2022/11/06 01:53:37;;;;;;;39.03;12.03;;;;;4.00;96662.00;;;;10111867;23;20269;-69
2022/11/06 01:57:42;;;;;;;99.40;13.80;;;;;4.20;96656.00;;;;10115424;23;20214;-69
2022/11/06 02:01:46;;;;;;;267.63;21.47;;;;;4.40;96651.00;;;;10119240;23;20210;-69
2022/11/06 02:05:49;;;;;;;303.80;21.37;;;;;4.60;96662.00;;;;10117750;23;20206;-68
2022/11/06 02:09:53;;;;;;;570.10;30.37;;;;;4.70;96653.00;;;;10119786;23;20239;-68
2022/11/06 02:14:05;;;;;;;366.67;22.93;;;;;4.70;96660.00;;;;10115494;23;20217;-68
2022/11/06 02:18:21;;;;;;;247.83;16.03;;;;;4.80;96664.00;;;;10115732;23;20194;-69
2022/11/06 02:22:40;;;;;;;191.80;13.40;;;;;4.90;96663.00;;;;10119870;23;20218;-69
2022/11/06 02:27:04;;;;;;;301.27;18.77;;;;;5.10;96670.00;;;;10074043;23;20233;-69
2022/11/06 02:31:12;;;;;;;206.27;18.43;;;;;5.20;96664.00;;;;10068637;23;20202;-69
2022/11/06 02:35:20;;;;;;;414.87;23.30;;;;;5.20;96674.00;;;;10072768;23;20210;-69
2022/11/06 02:39:25;;;;;;;310.43;19.63;;;;;5.30;96677.00;;;;10073387;23;20202;-69
2022/11/06 02:43:32;;;;;;;112.47;13.17;;;;;5.40;96683.00;;;;10074029;23;20207;-68
2022/11/06 02:47:36;;;;;;;184.57;16.90;;;;;5.40;96679.00;;;;10079841;23;20609;-69
2022/11/06 02:51:45;;;;;;;243.73;16.97;;;;;5.50;96670.00;;;;10104390;23;20279;-68
2022/11/06 02:55:51;;;;;;;135.60;12.67;;;;;5.50;96664.00;;;;10118599;23;20210;-68
2022/11/06 03:00:02;;;;;;;219.57;14.30;;;;;5.60;96668.00;;;;10121241;23;20210;-69
2022/11/06 03:04:15;;;;;;;360.43;19.67;;;;;5.60;96668.00;;;;10119180;23;20213;-69
2022/11/06 03:08:25;;;;;;;370.67;18.27;;;;;5.70;96662.00;;;;10072809;23;20590;-69
2022/11/06 03:12:33;;;;;;;277.87;17.60;;;;;5.60;96660.00;;;;10072132;23;20263;-68
2022/11/06 03:16:46;;;;;;;150.37;11.67;;;;;5.70;96664.00;;;;10072790;23;20218;-68
2022/11/06 03:20:57;;;;;;;142.93;12.30;;;;;5.70;96670.00;;;;10114812;23;20577;-68
2022/11/06 03:25:05;;;;;;;294.27;17.03;;;;;5.80;96662.00;;;;10121250;23;20664;-68
2022/11/06 03:29:12;;;;;;;89.80;10.60;;;;;5.90;96661.00;;;;10120145;23;20225;-68
2022/11/06 03:33:21;;;;;;;98.27;11.03;;;;;5.90;96664.00;;;;10119588;23;20206;-69
2022/11/06 03:37:30;;;;;;;147.00;12.53;;;;;5.90;96657.00;;;;10120005;23;20206;-68
2022/11/06 03:41:38;;;;;;;98.13;11.60;;;;;5.90;96647.00;;;;10120276;23;20204;-69
2022/11/06 03:45:44;;;;;;;230.67;15.37;;;;;5.90;96652.00;;;;10109663;23;20214;-68
2022/11/06 03:49:54;;;;;;;148.40;13.17;;;;;6.00;96633.00;;;;10118741;23;20205;-69
2022/11/06 03:54:02;;;;;;;148.37;13.37;;;;;6.00;96631.00;;;;10128590;23;20203;-69
2022/11/06 03:58:09;;;;;;;190.97;15.47;;;;;6.00;96637.00;;;;10118957;23;20238;-68
2022/11/06 04:02:16;;;;;;;183.10;14.87;;;;;6.00;96629.00;;;;10120535;23;20257;-69
2022/11/06 04:06:27;;;;;;;250.60;16.03;;;;;6.00;96636.00;;;;10121424;23;20256;-68
2022/11/06 04:14:56;;;;;;;344.10;18.80;;;;;6.00;96636.00;;;;10119460;23;20213;-68
2022/11/06 04:18:59;;;;;;;295.87;17.50;;;;;6.00;96630.00;;;;10121285;23;20566;-69
2022/11/06 04:23:12;;;;;;;368.33;22.30;;;;;6.10;96637.00;;;;10116168;23;20210;-69
2022/11/06 04:27:29;;;;;;;1487.60;128.07;;;;;6.00;96622.00;;;;10118002;23;20202;-68
2022/11/06 04:31:38;;;;;;;111.93;10.87;;;;;6.00;96613.00;;;;10119736;23;20210;-68
2022/11/06 04:35:54;;;;;;;302.80;17.50;;;;;6.00;96619.00;;;;10024938;23;293064;-68
2022/11/06 04:40:09;;;;;;;327.23;20.40;;;;;6.00;96615.00;;;;10106824;23;20207;-69
2022/11/06 04:44:18;;;;;;;183.30;13.73;;;;;6.10;96613.00;;;;10115112;23;20207;-68
2022/11/06 04:48:23;;;;;;;157.30;12.10;;;;;6.00;96604.00;;;;10119980;23;20202;-69
2022/11/06 04:52:28;;;;;;;263.43;15.77;;;;;6.00;96597.00;;;;10119246;23;20201;-69
2022/11/06 04:56:35;;;;;;;188.27;11.97;;;;;5.90;96587.00;;;;10117988;23;20989;-69
2022/11/06 05:00:47;;;;;;;228.00;14.40;;;;;6.00;96594.00;;;;10117836;23;20594;-68
2022/11/06 05:04:51;;;;;;;251.23;16.07;;;;;6.00;96595.00;;;;10119004;23;20207;-69
2022/11/06 05:08:56;;;;;;;289.27;15.60;;;;;6.00;96592.00;;;;10119324;23;20234;-69
2022/11/06 05:13:00;;;;;;;184.40;13.30;;;;;6.10;96582.00;;;;10119350;23;20241;-69
2022/11/06 05:17:06;;;;;;;171.77;10.97;;;;;6.10;96585.00;;;;10120229;23;20258;-69
2022/11/06 05:25:32;;;;;;;182.77;11.27;;;;;6.00;96570.00;;;;10115920;23;20202;-68
2022/11/06 05:29:37;;;;;;;212.47;12.67;;;;;5.90;96577.00;;;;10116393;23;20202;-68
2022/11/06 05:33:40;;;;;;;159.00;12.50;;;;;6.00;96584.00;;;;10116595;23;20209;-68
2022/11/06 05:37:43;;;;;;;179.10;11.83;;;;;6.00;96583.00;;;;10113167;23;20548;-68
2022/11/06 05:41:46;;;;;;;152.97;11.53;;;;;6.10;96583.00;;;;10117362;23;20203;-68
2022/11/06 05:45:52;;;;;;;89.87;8.80;;;;;6.10;96591.00;;;;10115622;23;20606;-67
2022/11/06 05:49:55;;;;;;;134.17;11.97;;;;;6.10;96580.00;;;;10119054;23;20265;-67
2022/11/06 05:53:58;;;;;;;109.27;9.90;;;;;6.20;96580.00;;;;10118256;23;20256;-68
2022/11/06 05:58:01;;;;;;;169.97;12.50;;;;;6.20;96583.00;;;;10121288;23;20221;-68
2022/11/06 06:02:06;;;;;;;324.67;14.60;;;;;6.10;96585.00;;;;10118194;23;20217;-68
2022/11/06 06:06:09;;;;;;;233.83;13.17;;;;;6.00;96586.00;;;;10118287;23;20648;-66
2022/11/06 06:10:12;;;;;;;283.43;13.97;;;;;6.00;96587.00;;;;10118982;23;20199;-67
2022/11/06 06:14:15;;;;;;;232.83;10.70;;;;;5.90;96587.00;;;;10117524;23;20652;-68
2022/11/06 06:18:20;;;;;;;193.10;10.07;;;;;5.90;96586.00;;;;10118605;23;20265;-67
2022/11/06 06:22:23;;;;;;;267.70;12.33;;;;;5.90;96576.00;;;;10115722;23;20217;-68
2022/11/06 06:26:26;;;;;;;161.37;8.03;;;;;5.80;96571.00;;;;10117851;23;20672;-68
2022/11/06 06:30:29;;;;;;;251.43;12.63;;;;;5.70;96568.00;;;;10116555;23;20265;-68
2022/11/06 06:34:34;;;;;;;191.27;9.37;;;;;5.70;96571.00;;;;10118182;23;20269;-68
2022/11/06 06:38:37;;;;;;;129.03;7.57;;;;;5.60;96567.00;;;;10115549;23;20199;-68
2022/11/06 06:42:40;;;;;;;75.53;6.17;;;;;5.60;96561.00;;;;10118471;23;20258;-68
2022/11/06 06:46:43;;;;;;;114.70;7.37;;;;;5.70;96560.00;;;;10115786;23;20225;-67
2022/11/06 06:50:48;;;;;;;325.80;22.00;;;;;5.80;96562.00;;;;10110277;23;20205;-68
2022/11/06 06:54:51;;;;;;;131.97;10.27;;;;;5.90;96563.00;;;;10116103;23;20210;-68
2022/11/06 06:58:54;;;;;;;151.53;10.37;;;;;5.90;96567.00;;;;10119822;23;20214;-67
2022/11/06 07:02:57;;;;;;;214.00;12.43;;;;;6.00;96573.00;;;;10117613;23;20211;-68
2022/11/06 07:07:02;;;;;;;160.70;9.37;;;;;6.00;96568.00;;;;10130380;23;20629;-67
2022/11/06 07:11:38;;;;;;;111.60;8.33;;;;;6.10;96577.00;;;;10136756;23;20278;-67
2022/11/06 07:16:15;;;;;;;163.87;10.00;;;;;6.20;96583.00;;;;10137107;23;20199;-67
2022/11/06 07:20:18;;;;;;;255.23;13.23;;;;;6.30;96576.00;;;;10135343;23;20198;-67
2022/11/06 07:24:55;;;;;;;308.73;13.77;;;;;6.50;96586.00;;;;10137340;23;20209;-67
2022/11/06 07:28:59;;;;;;;239.47;11.80;;;;;6.50;96586.00;;;;10088626;23;20198;-67
2022/11/06 07:33:33;;;;;;;112.30;8.23;;;;;6.60;96580.00;;;;10088847;23;20195;-67
2022/11/06 07:37:36;;;;;;;132.83;9.17;;;;;6.70;96603.00;;;;10088259;23;20238;-67
2022/11/06 07:41:39;;;;;;;247.90;13.33;;;;;6.80;96599.00;;;;10088883;23;20198;-66
2022/11/06 07:45:44;;;;;;;200.57;12.40;;;;;6.90;96610.00;;;;10078580;23;20253;-67
2022/11/06 07:49:47;;;;;;;336.50;16.77;;;;;6.90;96634.00;;;;10106348;23;20390;-67
2022/11/06 07:54:23;;;;;;;336.60;16.37;;;;;7.00;96628.00;;;;10087258;23;20199;-67
2022/11/06 08:03:59;;;;;;;327.50;17.80;;;;;7.20;96610.00;;;;10087635;23;20203;-69
2022/11/06 08:08:03;;;;;;;346.07;18.80;;;;;7.50;96591.00;;;;10136773;23;20199;-69
2022/11/06 08:12:07;;;;;;;210.70;15.83;;;;;7.60;96584.00;;;;10136340;23;20199;-70
2022/11/06 08:16:13;;;;;;;145.83;13.60;;;;;7.70;96590.00;;;;10136327;23;20609;-70
2022/11/06 08:20:18;;;;;;;250.50;15.80;;;;;7.70;96587.00;;;;10137101;23;20644;-70
2022/11/06 08:24:52;;;;;;;220.23;14.70;;;;;7.80;96586.00;;;;10087670;23;20250;-71
2022/11/06 08:28:56;;;;;;;167.47;15.73;;;;;7.90;96569.00;;;;10135855;23;20249;-71
2022/11/06 08:33:30;;;;;;;142.27;13.93;;;;;8.20;96570.00;;;;10136614;23;20199;-71
2022/11/06 08:37:36;;;;;;;263.00;17.40;;;;;8.20;96565.00;;;;10136918;23;20205;-71
2022/11/06 08:42:10;;;;;;;104.83;12.53;;;;;8.20;96568.00;;;;10135760;23;20222;-70
2022/11/06 08:46:14;;;;;;;61.63;12.30;;;;;8.30;96558.00;;;;10135836;23;20195;-69
2022/11/06 08:50:50;;;;;;;61.20;13.70;;;;;8.30;96543.00;;;;10135610;23;20203;-71
2022/11/06 08:54:55;;;;;;;68.83;16.10;;;;;8.40;96530.00;;;;10135564;23;20210;-70
2022/11/06 08:58:58;;;;;;;84.32;14.38;;;;;8.50;96524.00;;;;10129437;23;20202;-70
2022/11/06 09:03:35;;;;;;;73.63;15.10;;;;;8.60;96526.00;;;;10136321;23;20652;-70
2022/11/06 09:07:38;;;;;;;91.73;17.37;;;;;8.70;96532.00;;;;10086867;23;20192;-70
2022/11/06 09:12:17;;;;;;;100.03;25.20;;;;;8.70;96524.00;;;;10087110;23;20199;-70
2022/11/06 09:16:20;;;;;;;89.75;18.23;;;;;8.90;96513.00;;;;10135377;23;20506;-70
2022/11/06 09:20:57;;;;;;;78.33;15.87;;;;;8.90;96507.00;;;;10135202;23;20198;-71
2022/11/06 09:25:01;;;;;;;84.03;16.10;;;;;8.90;96510.00;;;;10135219;23;20199;-70
2022/11/06 09:29:07;;;;;;;85.55;17.15;;;;;8.80;96506.00;;;;10136308;23;20556;-70
2022/11/06 09:33:10;;;;;;;70.67;15.90;;;;;8.80;96518.00;;;;10135538;23;20303;-70
2022/11/06 09:37:15;;;;;;;75.68;16.30;;;;;8.90;96506.00;;;;10135933;23;20199;-70
2022/11/06 09:41:23;;;;;;;67.40;15.20;;;;;8.90;96505.00;;;;10135757;23;20206;-70
2022/11/06 09:45:57;;;;;;;80.00;18.27;;;;;8.90;96499.00;;;;10135311;23;20203;-70
2022/11/06 09:50:04;;;;;;;70.13;18.80;;;;;8.90;96499.00;;;;10135491;23;20191;-70
2022/11/06 09:54:15;;;;;;;77.97;17.55;;;;;8.80;96486.00;;;;10136013;23;20267;-70
2022/11/06 09:58:21;;;;;;;69.55;18.40;;;;;8.90;96464.00;;;;10134108;23;20234;-70
2022/11/06 10:02:31;;;;;;;73.20;17.87;;;;;8.90;96465.00;;;;10133601;23;20201;-70
2022/11/06 10:06:34;;;;;;;93.37;19.77;;;;;8.90;96455.00;;;;10134708;23;20209;-70
2022/11/06 10:10:43;;;;;;;70.73;19.30;;;;;9.00;96450.00;;;;10135472;23;20206;-70
2022/11/06 10:15:13;;;;;;;61.70;16.27;;;;;9.10;96448.00;;;;10134682;23;20256;-70
2022/11/06 10:19:24;;;;;;;81.10;17.97;;;;;9.20;96441.00;;;;10135325;23;20598;-69
2022/11/06 10:23:37;;;;;;;76.40;17.13;;;;;9.20;96434.00;;;;10135131;23;20272;-69
2022/11/06 10:27:46;;;;;;;68.40;16.07;;;;;9.20;96426.00;;;;10135440;23;20207;-70
2022/11/06 10:32:00;;;;;;;67.73;17.20;;;;;9.30;96422.00;;;;10135102;23;20866;-69
2022/11/06 10:36:09;;;;;;;73.07;17.37;;;;;9.40;96429.00;;;;10135828;23;20199;-70
2022/11/06 10:40:17;;;;;;;69.40;17.67;;;;;9.40;96407.00;;;;10138341;23;20198;-69
2022/11/06 10:44:49;;;;;;;64.38;17.92;;;;;9.60;96412.00;;;;10131817;23;20280;-69
2022/11/06 10:48:58;;;;;;;67.03;18.58;;;;;9.80;96396.00;;;;10090550;23;20246;-69
2022/11/06 10:53:08;;;;;;;61.40;17.70;;;;;10.00;96377.00;;;;10137362;23;20602;-69
2022/11/06 10:57:30;;;;;;;52.85;16.48;;;;;10.10;96375.00;;;;10138087;23;20202;-69
2022/11/06 11:01:34;;;;;;;58.65;17.35;;;;;10.10;96387.00;;;;10138088;23;20213;-69
2022/11/06 11:05:39;;;;;;;44.97;14.95;;;;;10.10;96362.00;;;;10135613;23;20626;-70
2022/11/06 11:09:45;;;;;;;38.28;13.98;;;;;10.20;96358.00;;;;10137495;23;20227;-69
2022/11/06 11:14:23;;;;;;;39.80;14.33;;;;;10.20;96361.00;;;;10137781;23;20504;-69
2022/11/06 11:18:30;;;;;;;41.63;15.13;;;;;10.20;96355.00;;;;10130786;23;20191;-69
2022/11/06 11:22:33;;;;;;;36.50;14.30;;;;;10.40;96338.00;;;;10089060;23;20191;-69
2022/11/06 11:26:42;;;;;;;38.42;14.88;;;;;10.40;96337.00;;;;10089770;23;20205;-69
2022/11/06 11:30:51;;;;;;;29.70;13.50;;;;;10.40;96329.00;;;;10088634;23;20204;-69
2022/11/06 11:34:56;;;;;;;36.25;15.55;;;;;10.40;96321.00;;;;10088519;23;20206;-69
2022/11/06 11:38:59;;;;;;;32.37;14.27;;;;;10.40;96310.00;;;;10137732;23;20203;-69
2022/11/06 11:43:22;;;;;;;43.97;14.38;;;;;10.40;96312.00;;;;10136817;23;20199;-69
2022/11/06 11:47:25;;;;;;;37.97;16.17;;;;;10.40;96305.00;;;;10134751;23;20230;-69
2022/11/06 11:51:35;;;;;;;33.00;13.73;;;;;10.30;96294.00;;;;10137136;23;20251;-69
2022/11/06 11:56:04;;;;;;;38.08;15.52;;;;;10.30;96276.00;;;;10087517;23;20195;-69
2022/11/06 12:00:16;;;;;;;28.92;13.90;;;;;10.30;96270.00;;;;10088428;23;20199;-69
2022/11/06 12:04:44;;;;;;;29.52;14.73;;;;;10.40;96247.00;;;;10088514;23;20203;-69
2022/11/06 12:08:50;;;;;;;36.65;15.75;;;;;10.50;96243.00;;;;10088535;23;20197;-69
2022/11/06 12:12:53;;;;;;;33.67;15.90;;;;;10.60;96244.00;;;;10087635;23;20195;-69
2022/11/06 12:17:03;;;;;;;33.95;15.20;;;;;10.70;96240.00;;;;10088474;23;20710;-69
2022/11/06 12:21:35;;;;;;;34.60;15.68;;;;;10.80;96241.00;;;;10136313;23;20200;-68
2022/11/06 12:25:41;;;;;;;30.75;15.32;;;;;10.80;96250.00;;;;10136313;23;20202;-68
2022/11/06 12:30:16;;;;;;;32.20;15.50;;;;;10.80;96240.00;;;;10136776;23;20203;-68
2022/11/06 12:34:30;;;;;;;29.92;14.13;;;;;10.80;96236.00;;;;10135980;23;20226;-69
2022/11/06 12:38:41;;;;;;;27.42;13.60;;;;;10.90;96245.00;;;;10087604;23;20195;-69
2022/11/06 12:43:14;;;;;;;30.30;15.52;;;;;10.90;96242.00;;;;10087163;23;20200;-69
2022/11/06 12:47:29;;;;;;;27.92;14.27;;;;;10.90;96236.00;;;;10136722;23;20198;-68
2022/11/06 12:51:44;;;;;;;26.40;12.95;;;;;10.90;96228.00;;;;10135830;23;20593;-68
2022/11/06 12:55:54;;;;;;;29.13;13.93;;;;;11.00;96221.00;;;;10136172;23;20200;-69
2022/11/06 13:00:08;;;;;;;22.40;12.02;;;;;11.10;96214.00;;;;10135973;23;20205;-68
2022/11/06 13:04:27;;;;;;;22.27;11.93;;;;;11.20;96216.00;;;;10086448;23;20188;-68
2022/11/06 13:08:38;;;;;;;21.33;12.00;;;;;11.40;96220.00;;;;10088138;23;20204;-69
2022/11/06 13:12:48;;;;;;;17.85;10.50;;;;;11.40;96212.00;;;;10126482;23;20594;-69
2022/11/06 13:16:59;;;;;;;18.45;10.85;;;;;11.50;96217.00;;;;10135906;23;20517;-69
2022/11/06 13:21:31;;;;;;;19.67;11.30;;;;;11.40;96213.00;;;;10092640;23;20491;-70
2022/11/06 13:25:45;;;;;;;18.70;10.68;;;;;11.40;96202.00;;;;10121004;23;20198;-69
2022/11/06 13:29:49;;;;;;;20.45;11.40;;;;;11.40;96193.00;;;;10135275;23;20252;-69
2022/11/06 13:33:57;;;;;;;20.35;11.07;;;;;11.40;96191.00;;;;10135683;23;20628;-69
2022/11/06 13:38:02;;;;;;;18.48;11.20;;;;;11.50;96167.00;;;;10134141;23;20202;-69
2022/11/06 13:42:14;;;;;;;19.55;11.10;;;;;11.60;96157.00;;;;10134847;23;20212;-68
2022/11/06 13:46:51;;;;;;;20.63;10.95;;;;;11.60;96161.00;;;;10135793;23;20202;-68
2022/11/06 13:51:21;;;;;;;20.40;10.27;;;;;11.60;96146.00;;;;10135854;23;20252;-68
2022/11/06 13:55:33;;;;;;;18.30;10.95;;;;;11.60;96138.00;;;;10087945;23;20609;-68
2022/11/06 14:05:06;;;;;;;18.38;10.50;;;;;11.40;96130.00;;;;10136156;23;20201;-68
2022/11/06 14:14:27;;;;;;;17.23;10.30;;;;;11.30;96117.00;;;;10136986;23;20271;-69
2022/11/06 14:19:03;;;;;;;16.38;9.77;;;;;11.20;96107.00;;;;10137615;23;20206;-69
2022/11/06 14:23:43;;;;;;;16.58;9.70;;;;;11.10;96096.00;;;;10137036;23;20190;-69
2022/11/06 14:28:20;;;;;;;18.67;10.38;;;;;11.00;96087.00;;;;10138411;23;20213;-69
2022/11/06 14:32:40;;;;;;;16.95;9.77;;;;;10.90;96077.00;;;;10137806;23;20200;-69
2022/11/06 14:36:43;;;;;;;18.23;10.05;;;;;10.80;96065.00;;;;10137139;23;20190;-69
2022/11/06 14:41:23;;;;;;;16.75;10.60;;;;;10.70;96055.00;;;;10138291;23;20206;-69
2022/11/06 14:45:28;;;;;;;17.35;10.43;;;;;10.60;96054.00;;;;10137536;23;20208;-69
2022/11/06 14:50:07;;;;;;;15.65;10.15;;;;;10.40;96050.00;;;;10137585;23;20216;-69
2022/11/06 14:54:39;;;;;;;16.95;10.63;;;;;10.30;96058.00;;;;10137237;23;20246;-69
2022/11/06 14:58:50;;;;;;;18.63;10.38;;;;;10.10;96053.00;;;;10137708;23;20210;-69
2022/11/06 15:03:29;;;;;;;15.50;9.60;;;;;10.00;96055.00;;;;10136967;23;20202;-69
2022/11/06 15:07:52;;;;;;;19.77;10.52;;;;;9.90;96032.00;;;;10137442;23;20191;-69
2022/11/06 15:12:10;;;;;;;20.77;11.07;;;;;9.70;96038.00;;;;10126060;23;20281;-70
2022/11/06 15:16:13;;;;;;;23.85;11.38;;;;;9.60;96036.00;;;;10137398;23;20205;-69
2022/11/06 15:20:52;;;;;;;20.00;11.73;;;;;9.40;96023.00;;;;10137078;23;20195;-69
2022/11/06 15:25:01;;;;;;;23.15;13.15;;;;;9.30;96026.00;;;;10136552;23;20195;-69
2022/11/06 15:29:32;;;;;;;20.05;11.52;;;;;9.10;96017.00;;;;10137000;23;20214;-69
2022/11/06 15:33:42;;;;;;;18.80;10.77;;;;;9.00;96017.00;;;;10136732;23;20568;-69
2022/11/06 15:37:47;;;;;;;21.23;11.32;;;;;8.90;96014.00;;;;10137515;23;20229;-70
2022/11/06 15:41:52;;;;;;;19.70;10.68;;;;;8.70;96009.00;;;;10137753;23;20203;-69
2022/11/06 15:46:26;;;;;;;22.10;11.23;;;;;8.60;96021.00;;;;10136580;23;20203;-69
2022/11/06 15:51:00;;;;;;;21.92;11.63;;;;;8.40;96022.00;;;;10086227;23;20268;-69
2022/11/06 15:55:04;;;;;;;21.73;11.87;;;;;8.20;96026.00;;;;10088669;23;20602;-69
2022/11/06 15:59:12;;;;;;;21.67;12.30;;;;;7.90;96020.00;;;;10087376;23;20199;-69
2022/11/06 16:03:18;;;;;;;26.50;12.77;;;;;7.70;96020.00;;;;10136838;23;20598;-70
2022/11/06 16:07:22;;;;;;;21.27;10.53;;;;;7.50;96026.00;;;;10137014;23;20206;-69
2022/11/06 16:11:59;;;;;;;22.93;12.50;;;;;7.30;96026.00;;;;10136973;23;20241;-69
2022/11/06 16:16:04;;;;;;;30.20;13.33;;;;;7.10;96027.00;;;;10135894;23;20198;-69
2022/11/06 16:20:13;;;;;;;25.80;13.03;;;;;7.00;96025.00;;;;10137524;23;20342;-69
2022/11/06 16:24:44;;;;;;;21.83;11.27;;;;;6.90;96033.00;;;;10136356;23;20543;-70
2022/11/06 16:28:49;;;;;;;20.57;10.17;;;;;6.70;96008.00;;;;10087276;23;20207;-69
2022/11/06 16:32:54;;;;;;;27.43;13.03;;;;;6.70;95999.00;;;;10088230;23;20278;-70
2022/11/06 16:36:59;;;;;;;25.73;12.30;;;;;6.80;95999.00;;;;10087390;23;20203;-69
2022/11/06 16:41:57;;;;;;;25.13;11.77;;;;;6.70;96008.00;;;;10087330;23;20202;-70
2022/11/06 16:46:04;;;;;;;27.90;12.53;;;;;6.60;96018.00;;;;10136208;23;20195;-69
2022/11/06 16:50:46;;;;;;;22.63;11.57;;;;;6.50;96013.00;;;;10134647;23;20195;-69
2022/11/06 16:54:51;;;;;;;24.07;11.50;;;;;6.40;96017.00;;;;10087453;23;20243;-69
2022/11/06 16:58:58;;;;;;;26.03;13.30;;;;;6.30;96022.00;;;;10087612;23;20203;-69
2022/11/06 17:03:04;;;;;;;35.43;14.80;;;;;6.20;96017.00;;;;10087520;23;20630;-69
2022/11/06 17:07:19;;;;;;;27.40;13.47;;;;;6.20;96023.00;;;;10086944;23;20199;-69
2022/11/06 17:11:22;;;;;;;30.37;14.33;;;;;6.10;96030.00;;;;10135759;23;20198;-69
2022/11/06 17:16:00;;;;;;;31.03;15.30;;;;;5.90;96035.00;;;;10126550;23;20191;-70
2022/11/06 17:20:35;;;;;;;30.73;13.87;;;;;5.80;96035.00;;;;10129517;23;20297;-70
2022/11/06 17:25:13;;;;;;;29.07;12.63;;;;;5.80;96041.00;;;;10135910;23;20198;-70
2022/11/06 17:29:17;;;;;;;26.53;12.87;;;;;5.70;96026.00;;;;10087369;23;20641;-70
2022/11/06 17:33:24;;;;;;;24.90;12.23;;;;;5.70;96012.00;;;;10087770;23;20219;-70
2022/11/06 17:38:01;;;;;;;37.40;16.47;;;;;5.60;96024.00;;;;10087007;23;20199;-70
2022/11/06 17:42:12;;;;;;;36.03;15.83;;;;;5.70;96022.00;;;;10087016;23;20218;-71
2022/11/06 17:46:15;;;;;;;35.57;15.83;;;;;5.70;96034.00;;;;10134398;23;20245;-70
2022/11/06 17:54:59;;;;;;;31.67;14.07;;;;;5.70;96023.00;;;;10044562;23;20196;-70
2022/11/06 17:59:04;;;;;;;40.53;14.93;;;;;5.70;96018.00;;;;10090357;23;20700;-70
2022/11/06 18:03:41;;;;;;;33.20;15.73;;;;;5.60;96017.00;;;;10089517;23;20218;-71
2022/11/06 18:07:44;;;;;;;41.47;17.43;;;;;5.60;96002.00;;;;10089777;23;20258;-71
2022/11/06 18:12:20;;;;;;;45.67;19.43;;;;;5.60;96007.00;;;;10089658;23;20261;-70
2022/11/06 18:16:27;;;;;;;51.63;19.27;;;;;5.80;96017.00;;;;10137553;23;20423;-71
2022/11/06 18:20:30;;;;;;;40.57;17.30;;;;;5.90;96033.00;;;;10138990;23;20202;-71
2022/11/06 18:24:33;;;;;;;47.17;18.87;;;;;6.10;96033.00;;;;10138066;23;20194;-71
2022/11/06 18:29:11;;;;;;;45.03;18.53;;;;;6.20;96043.00;;;;10137797;23;20199;-70
2022/11/06 18:33:16;;;;;;;39.40;17.20;;;;;6.20;96025.00;;;;10138428;23;20198;-70
2022/11/06 18:37:19;;;;;;;40.83;16.70;;;;;6.20;96032.00;;;;10137564;23;20209;-71
2022/11/06 18:41:22;;;;;;;45.33;16.93;;;;;6.30;96026.00;;;;10138845;23;20201;-70
2022/11/06 18:45:25;;;;;;;42.47;17.30;;;;;6.30;96027.00;;;;10137952;23;20199;-70
2022/11/06 18:50:03;;;;;;;46.23;18.27;;;;;6.30;96033.00;;;;10138014;23;20199;-70
2022/11/06 18:54:10;;;;;;;41.47;17.00;;;;;6.30;96044.00;;;;10137469;23;20214;-70
2022/11/06 18:58:40;;;;;;;47.80;17.70;;;;;6.40;96040.00;;;;10138104;23;20203;-70
2022/11/06 19:02:43;;;;;;;39.03;16.73;;;;;6.50;96050.00;;;;10137139;23;20218;-70
2022/11/06 19:06:48;;;;;;;41.03;15.93;;;;;6.50;96055.00;;;;10137950;23;20490;-70
2022/11/06 19:10:52;;;;;;;41.10;16.43;;;;;6.60;96044.00;;;;10137780;23;20199;-69
2022/11/06 19:14:55;;;;;;;42.37;15.47;;;;;6.70;96053.00;;;;10137904;23;20201;-69
2022/11/06 19:19:32;;;;;;;43.43;16.00;;;;;6.80;96045.00;;;;10135102;23;20724;-69
2022/11/06 19:23:36;;;;;;;40.70;15.77;;;;;6.90;96032.00;;;;10137686;23;20709;-69
2022/11/06 19:28:12;;;;;;;40.23;14.77;;;;;6.90;96040.00;;;;10136587;23;20194;-70
2022/11/06 19:32:15;;;;;;;45.93;17.47;;;;;7.10;96038.00;;;;10136737;23;20324;-69
2022/11/06 19:36:18;;;;;;;39.30;15.83;;;;;7.20;96045.00;;;;10137153;23;20191;-70
2022/11/06 19:40:56;;;;;;;39.23;15.40;;;;;7.20;96041.00;;;;10137504;23;20700;-69
2022/11/06 19:45:01;;;;;;;36.87;14.27;;;;;7.30;96035.00;;;;10133440;23;20202;-70
2022/11/06 19:49:05;;;;;;;41.43;16.33;;;;;7.30;96029.00;;;;10135905;23;20281;-69
2022/11/06 19:53:08;;;;;;;40.93;15.37;;;;;7.30;96031.00;;;;10137406;23;20285;-69
2022/11/06 19:57:12;;;;;;;47.47;14.67;;;;;7.40;96030.00;;;;10136901;23;20203;-69
2022/11/06 20:01:33;;;;;;;37.50;15.53;;;;;7.40;96046.00;;;;10136633;23;20230;-69
2022/11/06 20:06:08;;;;;;;41.43;15.03;;;;;7.40;96054.00;;;;10135713;23;20222;-69
2022/11/06 20:10:11;;;;;;;37.90;13.97;;;;;7.50;96063.00;;;;10135770;23;20195;-69
2022/11/06 20:14:17;;;;;;;35.83;14.00;;;;;7.50;96073.00;;;;10137008;23;20194;-69
2022/11/06 20:18:22;;;;;;;41.13;15.20;;;;;7.50;96070.00;;;;10136232;23;20594;-70
2022/11/06 20:22:56;;;;;;;38.57;15.63;;;;;7.50;96074.00;;;;10135532;23;20542;-70
2022/11/06 20:26:59;;;;;;;41.93;14.90;;;;;7.50;96069.00;;;;10136153;23;20199;-69
2022/11/06 20:31:06;;;;;;;40.27;14.23;;;;;7.50;96071.00;;;;10136240;23;20207;-69
2022/11/06 20:35:43;;;;;;;40.50;15.17;;;;;7.50;96078.00;;;;10136779;23;20350;-69
2022/11/06 20:39:46;;;;;;;40.67;14.83;;;;;7.60;96076.00;;;;10137332;23;20593;-69
2022/11/06 20:43:49;;;;;;;36.90;15.40;;;;;7.60;96082.00;;;;10134854;23;20199;-69
2022/11/06 20:48:30;;;;;;;32.17;14.13;;;;;7.60;96087.00;;;;10131370;23;20253;-70
2022/11/06 20:52:35;;;;;;;40.30;14.60;;;;;7.60;96096.00;;;;10134994;23;20273;-69
2022/11/06 20:57:09;;;;;;;35.63;15.60;;;;;7.70;96095.00;;;;10133790;23;20483;-68